sensor_id;sensor_type;location;lat;lon;timestamp;P1;durP1;ratioP1;P2;durP2;ratioP2
16246;SDS011;8231;50.866;7.944;2022-08-01T00:01:15;9.48;;;8.45;;
16246;SDS011;8231;50.866;7.944;2022-08-01T00:03:44;11.50;;;8.40;;
16246;SDS011;8231;50.866;7.944;2022-08-01T00:06:12;11.02;;;8.00;;
16246;SDS011;8231;50.866;7.944;2022-08-01T00:08:40;11.15;;;8.23;;
16246;SDS011;8231;50.866;7.944;2022-08-01T00:11:08;13.63;;;8.63;;
16246;SDS011;8231;50.866;7.944;2022-08-01T00:13:36;10.75;;;8.13;;
16246;SDS011;8231;50.866;7.944;2022-08-01T00:16:06;9.80;;;8.95;;
16246;SDS011;8231;50.866;7.944;2022-08-01T00:18:34;10.45;;;8.75;;
16246;SDS011;8231;50.866;7.944;2022-08-01T00:21:02;9.90;;;8.93;;
16246;SDS011;8231;50.866;7.944;2022-08-01T00:23:31;10.43;;;9.43;;
16246;SDS011;8231;50.866;7.944;2022-08-01T00:25:59;11.10;;;9.25;;
16246;SDS011;8231;50.866;7.944;2022-08-01T00:28:27;9.15;;;8.27;;
16246;SDS011;8231;50.866;7.944;2022-08-01T00:30:56;9.75;;;8.35;;
16246;SDS011;8231;50.866;7.944;2022-08-01T00:33:25;9.80;;;8.82;;
16246;SDS011;8231;50.866;7.944;2022-08-01T00:35:53;8.77;;;7.43;;
16246;SDS011;8231;50.866;7.944;2022-08-01T00:38:22;10.50;;;9.50;;
16246;SDS011;8231;50.866;7.944;2022-08-01T00:40:52;9.88;;;8.88;;
16246;SDS011;8231;50.866;7.944;2022-08-01T00:43:20;10.13;;;9.13;;
16246;SDS011;8231;50.866;7.944;2022-08-01T00:45:48;10.23;;;9.00;;
16246;SDS011;8231;50.866;7.944;2022-08-01T00:48:16;11.75;;;9.40;;
16246;SDS011;8231;50.866;7.944;2022-08-01T00:50:46;10.43;;;8.75;;
16246;SDS011;8231;50.866;7.944;2022-08-01T00:53:14;10.13;;;9.15;;
16246;SDS011;8231;50.866;7.944;2022-08-01T00:55:44;10.40;;;8.38;;
16246;SDS011;8231;50.866;7.944;2022-08-01T00:58:14;10.30;;;9.30;;
16246;SDS011;8231;50.866;7.944;2022-08-01T01:00:43;11.35;;;9.02;;
16246;SDS011;8231;50.866;7.944;2022-08-01T01:03:19;10.35;;;9.30;;
16246;SDS011;8231;50.866;7.944;2022-08-01T01:06:08;9.85;;;8.85;;
16246;SDS011;8231;50.866;7.944;2022-08-01T01:08:55;11.07;;;8.90;;
16246;SDS011;8231;50.866;7.944;2022-08-01T01:11:36;11.73;;;9.43;;
16246;SDS011;8231;50.866;7.944;2022-08-01T01:14:13;10.13;;;8.93;;
16246;SDS011;8231;50.866;7.944;2022-08-01T01:16:49;12.35;;;8.57;;
16246;SDS011;8231;50.866;7.944;2022-08-01T01:19:20;13.95;;;9.23;;
16246;SDS011;8231;50.866;7.944;2022-08-01T01:22:11;11.30;;;8.35;;
16246;SDS011;8231;50.866;7.944;2022-08-01T01:24:55;10.07;;;9.02;;
16246;SDS011;8231;50.866;7.944;2022-08-01T01:27:36;9.40;;;8.13;;
16246;SDS011;8231;50.866;7.944;2022-08-01T01:30:14;9.02;;;8.23;;
16246;SDS011;8231;50.866;7.944;2022-08-01T01:32:43;8.07;;;7.38;;
16246;SDS011;8231;50.866;7.944;2022-08-01T01:35:15;10.07;;;7.60;;
16246;SDS011;8231;50.866;7.944;2022-08-01T01:37:47;9.27;;;8.02;;
16246;SDS011;8231;50.866;7.944;2022-08-01T01:40:18;8.27;;;6.68;;
16246;SDS011;8231;50.866;7.944;2022-08-01T01:42:49;8.52;;;7.72;;
16246;SDS011;8231;50.866;7.944;2022-08-01T01:45:19;9.52;;;6.70;;
16246;SDS011;8231;50.866;7.944;2022-08-01T01:47:48;11.23;;;7.10;;
16246;SDS011;8231;50.866;7.944;2022-08-01T01:50:17;9.05;;;7.03;;
16246;SDS011;8231;50.866;7.944;2022-08-01T01:52:48;8.23;;;6.22;;
16246;SDS011;8231;50.866;7.944;2022-08-01T01:55:17;6.35;;;5.75;;
16246;SDS011;8231;50.866;7.944;2022-08-01T01:57:49;7.15;;;5.47;;
16246;SDS011;8231;50.866;7.944;2022-08-01T02:00:20;7.53;;;6.72;;
16246;SDS011;8231;50.866;7.944;2022-08-01T02:02:49;6.53;;;5.93;;
16246;SDS011;8231;50.866;7.944;2022-08-01T02:05:18;7.10;;;6.40;;
16246;SDS011;8231;50.866;7.944;2022-08-01T02:07:47;7.78;;;6.55;;
16246;SDS011;8231;50.866;7.944;2022-08-01T02:10:25;7.35;;;6.65;;
16246;SDS011;8231;50.866;7.944;2022-08-01T02:12:54;6.82;;;6.20;;
16246;SDS011;8231;50.866;7.944;2022-08-01T02:15:26;12.32;;;8.15;;
16246;SDS011;8231;50.866;7.944;2022-08-01T02:17:56;11.52;;;8.10;;
16246;SDS011;8231;50.866;7.944;2022-08-01T02:20:25;9.82;;;7.75;;
16246;SDS011;8231;50.866;7.944;2022-08-01T02:22:57;12.68;;;8.15;;
16246;SDS011;8231;50.866;7.944;2022-08-01T02:25:32;9.18;;;8.27;;
16246;SDS011;8231;50.866;7.944;2022-08-01T02:28:28;9.43;;;8.52;;
16246;SDS011;8231;50.866;7.944;2022-08-01T02:31:00;15.30;;;10.38;;
16246;SDS011;8231;50.866;7.944;2022-08-01T02:33:33;10.63;;;9.00;;
16246;SDS011;8231;50.866;7.944;2022-08-01T02:36:05;11.25;;;8.45;;
16246;SDS011;8231;50.866;7.944;2022-08-01T02:38:54;9.55;;;8.25;;
16246;SDS011;8231;50.866;7.944;2022-08-01T02:41:24;11.77;;;8.88;;
16246;SDS011;8231;50.866;7.944;2022-08-01T02:43:56;10.18;;;9.07;;
16246;SDS011;8231;50.866;7.944;2022-08-01T02:46:31;10.77;;;9.77;;
16246;SDS011;8231;50.866;7.944;2022-08-01T02:49:02;11.82;;;9.90;;
16246;SDS011;8231;50.866;7.944;2022-08-01T02:51:34;14.73;;;9.90;;
16246;SDS011;8231;50.866;7.944;2022-08-01T02:54:03;10.13;;;8.90;;
16246;SDS011;8231;50.866;7.944;2022-08-01T02:56:34;11.95;;;10.75;;
16246;SDS011;8231;50.866;7.944;2022-08-01T02:59:04;12.88;;;11.57;;
16246;SDS011;8231;50.866;7.944;2022-08-01T03:01:36;14.10;;;12.55;;
16246;SDS011;8231;50.866;7.944;2022-08-01T03:04:09;13.43;;;11.48;;
16246;SDS011;8231;50.866;7.944;2022-08-01T03:06:38;14.40;;;11.60;;
16246;SDS011;8231;50.866;7.944;2022-08-01T03:09:10;14.77;;;10.93;;
16246;SDS011;8231;50.866;7.944;2022-08-01T03:11:42;17.98;;;13.90;;
16246;SDS011;8231;50.866;7.944;2022-08-01T03:14:12;14.70;;;12.93;;
16246;SDS011;8231;50.866;7.944;2022-08-01T03:16:43;16.48;;;14.77;;
16246;SDS011;8231;50.866;7.944;2022-08-01T03:19:13;16.65;;;14.15;;
16246;SDS011;8231;50.866;7.944;2022-08-01T03:21:45;16.48;;;14.85;;
16246;SDS011;8231;50.866;7.944;2022-08-01T03:24:15;19.50;;;14.05;;
16246;SDS011;8231;50.866;7.944;2022-08-01T03:26:45;17.25;;;15.45;;
16246;SDS011;8231;50.866;7.944;2022-08-01T03:29:16;18.63;;;14.80;;
16246;SDS011;8231;50.866;7.944;2022-08-01T03:31:49;17.33;;;15.35;;
16246;SDS011;8231;50.866;7.944;2022-08-01T03:34:18;18.63;;;16.08;;
16246;SDS011;8231;50.866;7.944;2022-08-01T03:36:49;17.88;;;14.98;;
16246;SDS011;8231;50.866;7.944;2022-08-01T03:39:25;16.25;;;13.57;;
16246;SDS011;8231;50.866;7.944;2022-08-01T03:41:59;18.10;;;14.95;;
16246;SDS011;8231;50.866;7.944;2022-08-01T03:44:33;17.13;;;15.27;;
16246;SDS011;8231;50.866;7.944;2022-08-01T03:47:07;19.45;;;15.13;;
16246;SDS011;8231;50.866;7.944;2022-08-01T03:49:37;20.25;;;15.02;;
16246;SDS011;8231;50.866;7.944;2022-08-01T03:52:10;18.90;;;15.23;;
16246;SDS011;8231;50.866;7.944;2022-08-01T03:54:40;19.38;;;17.15;;
16246;SDS011;8231;50.866;7.944;2022-08-01T03:57:11;19.90;;;16.38;;
16246;SDS011;8231;50.866;7.944;2022-08-01T04:00:02;16.95;;;14.93;;
16246;SDS011;8231;50.866;7.944;2022-08-01T04:02:39;19.55;;;15.13;;
16246;SDS011;8231;50.866;7.944;2022-08-01T04:05:09;20.17;;;14.98;;
16246;SDS011;8231;50.866;7.944;2022-08-01T04:07:37;19.58;;;14.38;;
16246;SDS011;8231;50.866;7.944;2022-08-01T04:10:06;20.08;;;16.40;;
16246;SDS011;8231;50.866;7.944;2022-08-01T04:12:35;20.83;;;16.08;;
16246;SDS011;8231;50.866;7.944;2022-08-01T04:15:03;15.48;;;13.88;;
16246;SDS011;8231;50.866;7.944;2022-08-01T04:17:32;22.02;;;15.65;;
16246;SDS011;8231;50.866;7.944;2022-08-01T04:20:02;21.85;;;17.65;;
16246;SDS011;8231;50.866;7.944;2022-08-01T04:22:31;18.58;;;16.27;;
16246;SDS011;8231;50.866;7.944;2022-08-01T04:25:03;16.73;;;14.98;;
16246;SDS011;8231;50.866;7.944;2022-08-01T04:27:36;22.45;;;15.43;;
16246;SDS011;8231;50.866;7.944;2022-08-01T04:30:18;20.02;;;16.35;;
16246;SDS011;8231;50.866;7.944;2022-08-01T04:32:49;20.85;;;16.42;;
16246;SDS011;8231;50.866;7.944;2022-08-01T04:35:22;22.90;;;17.25;;
16246;SDS011;8231;50.866;7.944;2022-08-01T04:38:13;19.75;;;15.70;;
16246;SDS011;8231;50.866;7.944;2022-08-01T04:40:45;18.58;;;15.15;;
16246;SDS011;8231;50.866;7.944;2022-08-01T04:43:13;20.23;;;15.48;;
16246;SDS011;8231;50.866;7.944;2022-08-01T04:45:42;20.23;;;16.50;;
16246;SDS011;8231;50.866;7.944;2022-08-01T04:48:11;19.63;;;15.85;;
16246;SDS011;8231;50.866;7.944;2022-08-01T04:50:44;19.05;;;16.00;;
16246;SDS011;8231;50.866;7.944;2022-08-01T04:53:13;19.40;;;16.77;;
16246;SDS011;8231;50.866;7.944;2022-08-01T04:55:43;18.70;;;15.57;;
16246;SDS011;8231;50.866;7.944;2022-08-01T04:58:12;20.02;;;16.33;;
16246;SDS011;8231;50.866;7.944;2022-08-01T05:00:44;21.10;;;16.80;;
16246;SDS011;8231;50.866;7.944;2022-08-01T05:03:12;24.23;;;17.13;;
16246;SDS011;8231;50.866;7.944;2022-08-01T05:05:40;21.17;;;16.80;;
16246;SDS011;8231;50.866;7.944;2022-08-01T05:08:10;18.50;;;15.60;;
16246;SDS011;8231;50.866;7.944;2022-08-01T05:10:38;23.20;;;16.83;;
16246;SDS011;8231;50.866;7.944;2022-08-01T05:13:06;26.40;;;16.60;;
16246;SDS011;8231;50.866;7.944;2022-08-01T05:15:34;21.33;;;16.02;;
16246;SDS011;8231;50.866;7.944;2022-08-01T05:18:04;21.13;;;16.75;;
16246;SDS011;8231;50.866;7.944;2022-08-01T05:20:34;19.75;;;16.23;;
16246;SDS011;8231;50.866;7.944;2022-08-01T05:23:03;21.05;;;16.05;;
16246;SDS011;8231;50.866;7.944;2022-08-01T05:25:32;22.02;;;17.20;;
16246;SDS011;8231;50.866;7.944;2022-08-01T05:28:20;23.77;;;16.75;;
16246;SDS011;8231;50.866;7.944;2022-08-01T05:30:48;18.85;;;16.65;;
16246;SDS011;8231;50.866;7.944;2022-08-01T05:33:17;21.00;;;17.00;;
16246;SDS011;8231;50.866;7.944;2022-08-01T05:35:47;23.40;;;17.17;;
16246;SDS011;8231;50.866;7.944;2022-08-01T05:38:15;24.77;;;17.88;;
16246;SDS011;8231;50.866;7.944;2022-08-01T05:40:44;23.33;;;17.65;;
16246;SDS011;8231;50.866;7.944;2022-08-01T05:43:12;24.80;;;18.50;;
16246;SDS011;8231;50.866;7.944;2022-08-01T05:45:40;26.40;;;18.80;;
16246;SDS011;8231;50.866;7.944;2022-08-01T05:48:09;25.60;;;17.88;;
16246;SDS011;8231;50.866;7.944;2022-08-01T05:50:37;22.48;;;17.25;;
16246;SDS011;8231;50.866;7.944;2022-08-01T05:53:05;21.33;;;17.73;;
16246;SDS011;8231;50.866;7.944;2022-08-01T05:55:34;26.45;;;17.65;;
16246;SDS011;8231;50.866;7.944;2022-08-01T05:58:03;23.17;;;17.80;;
16246;SDS011;8231;50.866;7.944;2022-08-01T06:00:32;27.33;;;17.38;;
16246;SDS011;8231;50.866;7.944;2022-08-01T06:03:00;23.33;;;18.63;;
16246;SDS011;8231;50.866;7.944;2022-08-01T06:05:29;23.90;;;19.33;;
16246;SDS011;8231;50.866;7.944;2022-08-01T06:07:57;21.73;;;17.90;;
16246;SDS011;8231;50.866;7.944;2022-08-01T06:10:25;24.80;;;18.65;;
16246;SDS011;8231;50.866;7.944;2022-08-01T06:12:53;21.75;;;17.23;;
16246;SDS011;8231;50.866;7.944;2022-08-01T06:15:23;20.75;;;16.65;;
16246;SDS011;8231;50.866;7.944;2022-08-01T06:17:51;22.73;;;17.63;;
16246;SDS011;8231;50.866;7.944;2022-08-01T06:20:19;22.02;;;17.83;;
16246;SDS011;8231;50.866;7.944;2022-08-01T06:22:47;26.23;;;19.85;;
16246;SDS011;8231;50.866;7.944;2022-08-01T06:25:18;24.83;;;19.63;;
16246;SDS011;8231;50.866;7.944;2022-08-01T06:27:47;24.50;;;22.00;;
16246;SDS011;8231;50.866;7.944;2022-08-01T06:30:15;24.30;;;21.88;;
16246;SDS011;8231;50.866;7.944;2022-08-01T06:32:45;24.08;;;21.75;;
16246;SDS011;8231;50.866;7.944;2022-08-01T06:35:13;23.10;;;20.75;;
16246;SDS011;8231;50.866;7.944;2022-08-01T06:37:41;23.23;;;20.80;;
16246;SDS011;8231;50.866;7.944;2022-08-01T06:40:11;23.35;;;21.05;;
16246;SDS011;8231;50.866;7.944;2022-08-01T06:42:43;25.20;;;22.50;;
16246;SDS011;8231;50.866;7.944;2022-08-01T06:45:12;22.67;;;20.50;;
16246;SDS011;8231;50.866;7.944;2022-08-01T06:47:42;23.45;;;21.15;;
16246;SDS011;8231;50.866;7.944;2022-08-01T06:50:17;21.52;;;19.25;;
16246;SDS011;8231;50.866;7.944;2022-08-01T06:52:45;22.55;;;19.90;;
16246;SDS011;8231;50.866;7.944;2022-08-01T06:55:14;22.83;;;20.63;;
16246;SDS011;8231;50.866;7.944;2022-08-01T06:57:45;21.15;;;19.00;;
16246;SDS011;8231;50.866;7.944;2022-08-01T07:00:14;23.33;;;20.73;;
16246;SDS011;8231;50.866;7.944;2022-08-01T07:02:45;22.00;;;19.70;;
16246;SDS011;8231;50.866;7.944;2022-08-01T07:05:13;21.42;;;19.38;;
16246;SDS011;8231;50.866;7.944;2022-08-01T07:07:42;19.88;;;17.77;;
16246;SDS011;8231;50.866;7.944;2022-08-01T07:10:10;20.88;;;18.77;;
16246;SDS011;8231;50.866;7.944;2022-08-01T07:12:39;19.50;;;17.70;;
16246;SDS011;8231;50.866;7.944;2022-08-01T07:15:07;22.38;;;19.10;;
16246;SDS011;8231;50.866;7.944;2022-08-01T07:17:37;20.45;;;18.45;;
16246;SDS011;8231;50.866;7.944;2022-08-01T07:20:06;22.38;;;19.98;;
16246;SDS011;8231;50.866;7.944;2022-08-01T07:22:36;21.98;;;19.52;;
16246;SDS011;8231;50.866;7.944;2022-08-01T07:25:07;20.15;;;18.05;;
16246;SDS011;8231;50.866;7.944;2022-08-01T07:27:36;21.23;;;19.05;;
16246;SDS011;8231;50.866;7.944;2022-08-01T07:30:04;20.02;;;18.08;;
16246;SDS011;8231;50.866;7.944;2022-08-01T07:32:33;20.60;;;17.60;;
16246;SDS011;8231;50.866;7.944;2022-08-01T07:35:02;18.80;;;16.90;;
16246;SDS011;8231;50.866;7.944;2022-08-01T07:37:31;21.35;;;19.15;;
16246;SDS011;8231;50.866;7.944;2022-08-01T07:40:15;19.80;;;17.67;;
16246;SDS011;8231;50.866;7.944;2022-08-01T07:42:44;17.83;;;16.10;;
16246;SDS011;8231;50.866;7.944;2022-08-01T07:45:12;15.25;;;13.85;;
16246;SDS011;8231;50.866;7.944;2022-08-01T07:47:41;14.65;;;13.30;;
16246;SDS011;8231;50.866;7.944;2022-08-01T07:50:09;12.77;;;11.68;;
16246;SDS011;8231;50.866;7.944;2022-08-01T07:52:39;13.20;;;12.00;;
16246;SDS011;8231;50.866;7.944;2022-08-01T07:55:07;13.48;;;12.13;;
16246;SDS011;8231;50.866;7.944;2022-08-01T07:57:43;11.90;;;10.90;;
16246;SDS011;8231;50.866;7.944;2022-08-01T08:00:12;13.65;;;10.10;;
16246;SDS011;8231;50.866;7.944;2022-08-01T08:02:40;11.80;;;10.70;;
16246;SDS011;8231;50.866;7.944;2022-08-01T08:05:08;11.90;;;10.85;;
16246;SDS011;8231;50.866;7.944;2022-08-01T08:07:37;11.27;;;10.38;;
16246;SDS011;8231;50.866;7.944;2022-08-01T08:10:05;10.32;;;9.35;;
16246;SDS011;8231;50.866;7.944;2022-08-01T08:12:34;11.70;;;10.30;;
16246;SDS011;8231;50.866;7.944;2022-08-01T08:15:04;10.40;;;9.40;;
16246;SDS011;8231;50.866;7.944;2022-08-01T08:17:33;10.52;;;9.57;;
16246;SDS011;8231;50.866;7.944;2022-08-01T08:20:02;11.88;;;10.77;;
16246;SDS011;8231;50.866;7.944;2022-08-01T08:22:34;10.48;;;9.50;;
16246;SDS011;8231;50.866;7.944;2022-08-01T08:25:03;11.20;;;10.10;;
16246;SDS011;8231;50.866;7.944;2022-08-01T08:27:33;10.05;;;9.20;;
16246;SDS011;8231;50.866;7.944;2022-08-01T08:30:05;10.02;;;9.23;;
16246;SDS011;8231;50.866;7.944;2022-08-01T08:32:34;10.20;;;9.30;;
16246;SDS011;8231;50.866;7.944;2022-08-01T08:35:03;10.50;;;9.52;;
16246;SDS011;8231;50.866;7.944;2022-08-01T08:37:33;9.90;;;8.63;;
16246;SDS011;8231;50.866;7.944;2022-08-01T08:40:08;9.82;;;9.02;;
16246;SDS011;8231;50.866;7.944;2022-08-01T08:42:38;8.98;;;8.07;;
16246;SDS011;8231;50.866;7.944;2022-08-01T08:45:09;7.80;;;7.07;;
16246;SDS011;8231;50.866;7.944;2022-08-01T08:47:37;8.43;;;7.05;;
16246;SDS011;8231;50.866;7.944;2022-08-01T08:50:07;7.97;;;7.28;;
16246;SDS011;8231;50.866;7.944;2022-08-01T08:52:36;8.48;;;7.18;;
16246;SDS011;8231;50.866;7.944;2022-08-01T08:55:06;8.23;;;7.60;;
16246;SDS011;8231;50.866;7.944;2022-08-01T08:57:36;8.20;;;7.60;;
16246;SDS011;8231;50.866;7.944;2022-08-01T09:00:10;8.93;;;8.02;;
16246;SDS011;8231;50.866;7.944;2022-08-01T09:02:40;8.48;;;7.68;;
16246;SDS011;8231;50.866;7.944;2022-08-01T09:05:10;8.15;;;7.45;;
16246;SDS011;8231;50.866;7.944;2022-08-01T09:07:45;8.23;;;7.10;;
16246;SDS011;8231;50.866;7.944;2022-08-01T09:10:13;6.85;;;6.22;;
16246;SDS011;8231;50.866;7.944;2022-08-01T09:15:38;4.97;;;4.57;;
16246;SDS011;8231;50.866;7.944;2022-08-01T09:18:07;5.03;;;4.55;;
16246;SDS011;8231;50.866;7.944;2022-08-01T09:20:35;5.22;;;4.70;;
16246;SDS011;8231;50.866;7.944;2022-08-01T09:23:03;6.82;;;5.22;;
16246;SDS011;8231;50.866;7.944;2022-08-01T09:25:33;6.35;;;4.30;;
16246;SDS011;8231;50.866;7.944;2022-08-01T09:28:27;5.15;;;4.85;;
16246;SDS011;8231;50.866;7.944;2022-08-01T09:30:57;5.15;;;4.72;;
16246;SDS011;8231;50.866;7.944;2022-08-01T09:33:25;4.68;;;4.28;;
16246;SDS011;8231;50.866;7.944;2022-08-01T09:36:17;5.05;;;4.65;;
16246;SDS011;8231;50.866;7.944;2022-08-01T09:38:46;4.05;;;3.75;;
16246;SDS011;8231;50.866;7.944;2022-08-01T09:41:16;5.15;;;3.72;;
16246;SDS011;8231;50.866;7.944;2022-08-01T09:43:47;4.00;;;3.50;;
16246;SDS011;8231;50.866;7.944;2022-08-01T09:46:20;5.43;;;3.97;;
16246;SDS011;8231;50.866;7.944;2022-08-01T09:49:00;4.45;;;4.00;;
16246;SDS011;8231;50.866;7.944;2022-08-01T09:51:36;3.92;;;3.63;;
16246;SDS011;8231;50.866;7.944;2022-08-01T09:54:29;3.78;;;3.58;;
16246;SDS011;8231;50.866;7.944;2022-08-01T09:57:12;3.90;;;3.60;;
16246;SDS011;8231;50.866;7.944;2022-08-01T09:59:43;4.25;;;3.88;;
16246;SDS011;8231;50.866;7.944;2022-08-01T10:02:29;3.92;;;3.50;;
16246;SDS011;8231;50.866;7.944;2022-08-01T10:05:00;3.45;;;3.25;;
16246;SDS011;8231;50.866;7.944;2022-08-01T10:07:34;3.55;;;3.30;;
16246;SDS011;8231;50.866;7.944;2022-08-01T10:10:10;4.25;;;3.70;;
16246;SDS011;8231;50.866;7.944;2022-08-01T10:12:40;3.72;;;3.53;;
16246;SDS011;8231;50.866;7.944;2022-08-01T10:15:11;4.50;;;4.10;;
16246;SDS011;8231;50.866;7.944;2022-08-01T10:17:46;4.07;;;3.75;;
16246;SDS011;8231;50.866;7.944;2022-08-01T10:20:23;4.55;;;4.13;;
16246;SDS011;8231;50.866;7.944;2022-08-01T10:22:58;5.15;;;4.68;;
16246;SDS011;8231;50.866;7.944;2022-08-01T10:25:34;5.65;;;4.28;;
16246;SDS011;8231;50.866;7.944;2022-08-01T10:28:10;4.43;;;4.03;;
16246;SDS011;8231;50.866;7.944;2022-08-01T10:30:45;4.28;;;3.97;;
16246;SDS011;8231;50.866;7.944;2022-08-01T10:33:16;4.78;;;4.15;;
16246;SDS011;8231;50.866;7.944;2022-08-01T10:36:05;3.30;;;3.10;;
16246;SDS011;8231;50.866;7.944;2022-08-01T10:38:34;3.92;;;3.05;;
16246;SDS011;8231;50.866;7.944;2022-08-01T10:41:03;3.33;;;2.97;;
16246;SDS011;8231;50.866;7.944;2022-08-01T10:43:34;3.28;;;3.08;;
16246;SDS011;8231;50.866;7.944;2022-08-01T10:46:03;4.00;;;3.15;;
16246;SDS011;8231;50.866;7.944;2022-08-01T10:48:38;3.30;;;3.00;;
16246;SDS011;8231;50.866;7.944;2022-08-01T10:51:10;4.07;;;3.10;;
16246;SDS011;8231;50.866;7.944;2022-08-01T10:53:47;3.30;;;3.00;;
16246;SDS011;8231;50.866;7.944;2022-08-01T10:56:20;2.47;;;2.28;;
16246;SDS011;8231;50.866;7.944;2022-08-01T10:58:56;3.20;;;3.00;;
16246;SDS011;8231;50.866;7.944;2022-08-01T11:01:37;2.88;;;2.67;;
16246;SDS011;8231;50.866;7.944;2022-08-01T11:04:12;3.22;;;2.92;;
16246;SDS011;8231;50.866;7.944;2022-08-01T11:06:49;2.75;;;2.55;;
16246;SDS011;8231;50.866;7.944;2022-08-01T11:09:31;2.40;;;2.30;;
16246;SDS011;8231;50.866;7.944;2022-08-01T11:12:08;3.13;;;2.88;;
16246;SDS011;8231;50.866;7.944;2022-08-01T11:17:56;2.90;;;2.70;;
16246;SDS011;8231;50.866;7.944;2022-08-01T11:20:28;4.43;;;2.88;;
16246;SDS011;8231;50.866;7.944;2022-08-01T11:26:06;3.03;;;2.83;;
16246;SDS011;8231;50.866;7.944;2022-08-01T11:29:11;2.88;;;2.67;;
16246;SDS011;8231;50.866;7.944;2022-08-01T11:31:48;3.80;;;2.35;;
16246;SDS011;8231;50.866;7.944;2022-08-01T11:34:18;3.00;;;2.60;;
16246;SDS011;8231;50.866;7.944;2022-08-01T11:36:48;3.00;;;2.67;;
16246;SDS011;8231;50.866;7.944;2022-08-01T11:39:25;2.92;;;2.63;;
16246;SDS011;8231;50.866;7.944;2022-08-01T11:41:55;2.80;;;2.22;;
16246;SDS011;8231;50.866;7.944;2022-08-01T11:44:50;3.63;;;2.42;;
16246;SDS011;8231;50.866;7.944;2022-08-01T11:47:18;2.30;;;2.20;;
16246;SDS011;8231;50.866;7.944;2022-08-01T11:50:31;2.60;;;2.40;;
16246;SDS011;8231;50.866;7.944;2022-08-01T11:53:06;3.25;;;2.05;;
16246;SDS011;8231;50.866;7.944;2022-08-01T11:55:38;2.15;;;2.05;;
16246;SDS011;8231;50.866;7.944;2022-08-01T11:58:20;2.10;;;1.83;;
16246;SDS011;8231;50.866;7.944;2022-08-01T12:00:57;1.70;;;1.60;;
16246;SDS011;8231;50.866;7.944;2022-08-01T12:03:26;2.42;;;2.22;;
16246;SDS011;8231;50.866;7.944;2022-08-01T12:06:00;2.00;;;1.90;;
16246;SDS011;8231;50.866;7.944;2022-08-01T12:08:30;2.30;;;2.10;;
16246;SDS011;8231;50.866;7.944;2022-08-01T12:11:01;2.00;;;1.90;;
16246;SDS011;8231;50.866;7.944;2022-08-01T12:13:38;1.80;;;1.70;;
16246;SDS011;8231;50.866;7.944;2022-08-01T12:16:08;1.90;;;1.80;;
16246;SDS011;8231;50.866;7.944;2022-08-01T12:18:38;1.70;;;1.60;;
16246;SDS011;8231;50.866;7.944;2022-08-01T12:21:07;2.55;;;1.92;;
16246;SDS011;8231;50.866;7.944;2022-08-01T12:23:36;2.03;;;1.83;;
16246;SDS011;8231;50.866;7.944;2022-08-01T12:26:05;1.70;;;1.60;;
16246;SDS011;8231;50.866;7.944;2022-08-01T12:28:38;2.22;;;2.00;;
16246;SDS011;8231;50.866;7.944;2022-08-01T12:31:06;2.17;;;1.73;;
16246;SDS011;8231;50.866;7.944;2022-08-01T12:33:38;2.47;;;1.60;;
16246;SDS011;8231;50.866;7.944;2022-08-01T12:36:06;1.58;;;1.48;;
16246;SDS011;8231;50.866;7.944;2022-08-01T12:38:41;1.83;;;1.73;;
16246;SDS011;8231;50.866;7.944;2022-08-01T12:41:10;2.00;;;1.90;;
16246;SDS011;8231;50.866;7.944;2022-08-01T12:43:38;2.25;;;1.80;;
16246;SDS011;8231;50.866;7.944;2022-08-01T12:46:07;1.92;;;1.83;;
16246;SDS011;8231;50.866;7.944;2022-08-01T12:48:42;2.20;;;2.00;;
16246;SDS011;8231;50.866;7.944;2022-08-01T12:51:10;2.30;;;2.15;;
16246;SDS011;8231;50.866;7.944;2022-08-01T12:53:39;1.85;;;1.73;;
16246;SDS011;8231;50.866;7.944;2022-08-01T12:56:09;2.30;;;2.15;;
16246;SDS011;8231;50.866;7.944;2022-08-01T12:58:38;2.30;;;2.10;;
16246;SDS011;8231;50.866;7.944;2022-08-01T13:01:07;2.00;;;1.90;;
16246;SDS011;8231;50.866;7.944;2022-08-01T13:03:36;2.03;;;1.92;;
16246;SDS011;8231;50.866;7.944;2022-08-01T13:06:09;1.90;;;1.80;;
16246;SDS011;8231;50.866;7.944;2022-08-01T13:08:40;2.45;;;2.20;;
16246;SDS011;8231;50.866;7.944;2022-08-01T13:11:11;2.47;;;2.10;;
16246;SDS011;8231;50.866;7.944;2022-08-01T13:13:43;3.28;;;2.80;;
16246;SDS011;8231;50.866;7.944;2022-08-01T13:16:13;2.80;;;2.60;;
16246;SDS011;8231;50.866;7.944;2022-08-01T13:19:02;2.90;;;2.65;;
16246;SDS011;8231;50.866;7.944;2022-08-01T13:21:31;2.85;;;2.65;;
16246;SDS011;8231;50.866;7.944;2022-08-01T13:24:22;3.38;;;3.17;;
16246;SDS011;8231;50.866;7.944;2022-08-01T13:26:54;3.15;;;2.85;;
16246;SDS011;8231;50.866;7.944;2022-08-01T13:29:31;2.85;;;2.65;;
16246;SDS011;8231;50.866;7.944;2022-08-01T13:32:11;2.58;;;2.38;;
16246;SDS011;8231;50.866;7.944;2022-08-01T13:35:02;4.70;;;2.22;;
16246;SDS011;8231;50.866;7.944;2022-08-01T13:37:31;3.28;;;2.53;;
16246;SDS011;8231;50.866;7.944;2022-08-01T13:39:59;2.47;;;2.28;;
16246;SDS011;8231;50.866;7.944;2022-08-01T13:42:30;2.63;;;2.42;;
16246;SDS011;8231;50.866;7.944;2022-08-01T13:44:58;2.30;;;2.10;;
16246;SDS011;8231;50.866;7.944;2022-08-01T13:47:28;2.20;;;2.10;;
16246;SDS011;8231;50.866;7.944;2022-08-01T13:49:58;2.55;;;2.35;;
16246;SDS011;8231;50.866;7.944;2022-08-01T13:52:29;2.55;;;2.35;;
16246;SDS011;8231;50.866;7.944;2022-08-01T13:54:58;2.53;;;2.33;;
16246;SDS011;8231;50.866;7.944;2022-08-01T13:57:27;2.65;;;2.45;;
16246;SDS011;8231;50.866;7.944;2022-08-01T14:00:03;2.47;;;2.25;;
16246;SDS011;8231;50.866;7.944;2022-08-01T14:02:37;2.10;;;2.00;;
16246;SDS011;8231;50.866;7.944;2022-08-01T14:05:05;3.25;;;2.00;;
16246;SDS011;8231;50.866;7.944;2022-08-01T14:07:34;2.33;;;2.15;;
16246;SDS011;8231;50.866;7.944;2022-08-01T14:10:04;2.28;;;2.08;;
16246;SDS011;8231;50.866;7.944;2022-08-01T14:12:45;2.05;;;1.85;;
16246;SDS011;8231;50.866;7.944;2022-08-01T14:15:14;2.08;;;1.98;;
16246;SDS011;8231;50.866;7.944;2022-08-01T14:18:04;3.15;;;2.17;;
16246;SDS011;8231;50.866;7.944;2022-08-01T14:20:34;2.03;;;1.92;;
16246;SDS011;8231;50.866;7.944;2022-08-01T14:23:03;3.25;;;2.25;;
16246;SDS011;8231;50.866;7.944;2022-08-01T14:25:34;2.40;;;2.13;;
16246;SDS011;8231;50.866;7.944;2022-08-01T14:28:24;2.22;;;2.03;;
16246;SDS011;8231;50.866;7.944;2022-08-01T14:30:54;2.45;;;2.25;;
16246;SDS011;8231;50.866;7.944;2022-08-01T14:33:22;2.22;;;1.77;;
16246;SDS011;8231;50.866;7.944;2022-08-01T14:35:51;2.33;;;2.08;;
16246;SDS011;8231;50.866;7.944;2022-08-01T14:38:39;1.85;;;1.63;;
16246;SDS011;8231;50.866;7.944;2022-08-01T14:41:11;2.17;;;1.98;;
16246;SDS011;8231;50.866;7.944;2022-08-01T14:43:42;4.18;;;2.20;;
16246;SDS011;8231;50.866;7.944;2022-08-01T14:46:11;2.20;;;1.63;;
16246;SDS011;8231;50.866;7.944;2022-08-01T14:48:39;2.20;;;1.85;;
16246;SDS011;8231;50.866;7.944;2022-08-01T14:51:07;1.65;;;1.55;;
16246;SDS011;8231;50.866;7.944;2022-08-01T14:53:36;2.58;;;2.03;;
16246;SDS011;8231;50.866;7.944;2022-08-01T14:56:07;2.00;;;1.80;;
16246;SDS011;8231;50.866;7.944;2022-08-01T14:58:35;2.47;;;2.28;;
16246;SDS011;8231;50.866;7.944;2022-08-01T15:01:04;1.88;;;1.50;;
16246;SDS011;8231;50.866;7.944;2022-08-01T15:03:32;2.10;;;2.00;;
16246;SDS011;8231;50.866;7.944;2022-08-01T15:06:00;1.55;;;1.45;;
16246;SDS011;8231;50.866;7.944;2022-08-01T15:08:28;2.25;;;2.05;;
16246;SDS011;8231;50.866;7.944;2022-08-01T15:10:58;3.15;;;1.98;;
16246;SDS011;8231;50.866;7.944;2022-08-01T15:13:27;1.80;;;1.67;;
16246;SDS011;8231;50.866;7.944;2022-08-01T15:15:59;1.95;;;1.48;;
16246;SDS011;8231;50.866;7.944;2022-08-01T15:18:28;1.60;;;1.50;;
16246;SDS011;8231;50.866;7.944;2022-08-01T15:20:59;2.42;;;1.52;;
16246;SDS011;8231;50.866;7.944;2022-08-01T15:23:27;1.85;;;1.67;;
16246;SDS011;8231;50.866;7.944;2022-08-01T15:25:55;2.83;;;2.17;;
16246;SDS011;8231;50.866;7.944;2022-08-01T15:28:23;2.15;;;1.70;;